Terminal Aerodrome Forecast
Issued by NWS

Home | Current Version | Previous Version | Text Only | Print | Product List | Glossary On
Versions: 1 2 3 4 5 6 7 8 9 10 11 12
000
FTUS43 KSGF 291725
TAFBBG
TAF
KBBG 291725Z 2918/3018 12008KT P6SM SCT050
     FM292200 16008KT P6SM VCTS BKN040CB
     FM300300 VRB03KT P6SM VCSH BKN040
     FM300900 15006KT P6SM BKN100=

USA.gov is the U.S. government's official web portal to all federal, state and local government web resources and services.